sensor_id;sensor_type;location;lat;lon;timestamp;pressure;altitude;pressure_sealevel;temperature;humidity
73422;BME280;61637;47.760;-122.022;2023-04-30T00:00:00;101253.06099999999;;;24.9;unknown
73422;BME280;61637;47.760;-122.022;2023-04-30T00:02:01;101253.06099999999;;;24.9;unknown
73422;BME280;61637;47.760;-122.022;2023-04-30T00:04:00;101253.06099999999;;;25.0;unknown
73422;BME280;61637;47.760;-122.022;2023-04-30T00:06:00;101253.06099999999;;;24.9;unknown
73422;BME280;61637;47.760;-122.022;2023-04-30T00:08:00;101253.06099999999;;;24.9;unknown
73422;BME280;61637;47.760;-122.022;2023-04-30T00:10:00;101253.06099999999;;;24.9;unknown
73422;BME280;61637;47.760;-122.022;2023-04-30T00:12:00;101253.06099999999;;;24.9;unknown
73422;BME280;61637;47.760;-122.022;2023-04-30T00:14:01;101253.06099999999;;;25.1;unknown
73422;BME280;61637;47.760;-122.022;2023-04-30T00:16:00;101253.06099999999;;;25.1;unknown
73422;BME280;61637;47.760;-122.022;2023-04-30T00:18:01;101253.06099999999;;;25.1;unknown
73422;BME280;61637;47.760;-122.022;2023-04-30T00:20:01;101253.06099999999;;;25.1;unknown
73422;BME280;61637;47.760;-122.022;2023-04-30T00:22:00;101253.06099999999;;;25.1;unknown
73422;BME280;61637;47.760;-122.022;2023-04-30T00:24:00;101253.06099999999;;;25.0;unknown
73422;BME280;61637;47.760;-122.022;2023-04-30T00:26:01;101253.06099999999;;;24.9;unknown
73422;BME280;61637;47.760;-122.022;2023-04-30T00:28:00;101253.06099999999;;;25.0;unknown
73422;BME280;61637;47.760;-122.022;2023-04-30T00:30:00;101253.06099999999;;;25.0;unknown
73422;BME280;61637;47.760;-122.022;2023-04-30T00:32:01;101253.06099999999;;;25.1;unknown
73422;BME280;61637;47.760;-122.022;2023-04-30T00:34:00;101253.06099999999;;;25.1;unknown
73422;BME280;61637;47.760;-122.022;2023-04-30T00:36:00;101253.06099999999;;;25.2;unknown
73422;BME280;61637;47.760;-122.022;2023-04-30T00:38:01;101253.06099999999;;;25.1;unknown
73422;BME280;61637;47.760;-122.022;2023-04-30T00:40:00;101253.06099999999;;;25.1;unknown
73422;BME280;61637;47.760;-122.022;2023-04-30T00:42:00;101253.06099999999;;;25.1;unknown
73422;BME280;61637;47.760;-122.022;2023-04-30T00:44:01;101253.06099999999;;;25.1;unknown
73422;BME280;61637;47.760;-122.022;2023-04-30T00:46:00;101253.06099999999;;;25.1;unknown
73422;BME280;61637;47.760;-122.022;2023-04-30T00:48:00;101253.06099999999;;;25.1;unknown
73422;BME280;61637;47.760;-122.022;2023-04-30T00:50:01;101253.06099999999;;;25.1;unknown
73422;BME280;61637;47.760;-122.022;2023-04-30T00:52:00;101253.06099999999;;;25.1;unknown
73422;BME280;61637;47.760;-122.022;2023-04-30T00:54:01;101253.06099999999;;;25.1;unknown
73422;BME280;61637;47.760;-122.022;2023-04-30T00:56:01;101253.06099999999;;;25.0;unknown
73422;BME280;61637;47.760;-122.022;2023-04-30T00:58:00;101253.06099999999;;;24.9;unknown
73422;BME280;61637;47.760;-122.022;2023-04-30T01:00:00;101253.06099999999;;;24.9;unknown
73422;BME280;61637;47.760;-122.022;2023-04-30T01:02:01;101253.06099999999;;;24.9;unknown
73422;BME280;61637;47.760;-122.022;2023-04-30T01:04:00;101253.06099999999;;;24.9;unknown
73422;BME280;61637;47.760;-122.022;2023-04-30T01:06:00;101253.06099999999;;;24.9;unknown
73422;BME280;61637;47.760;-122.022;2023-04-30T01:08:01;101253.06099999999;;;24.9;unknown
73422;BME280;61637;47.760;-122.022;2023-04-30T01:10:01;101253.06099999999;;;24.9;unknown
73422;BME280;61637;47.760;-122.022;2023-04-30T01:12:03;101253.06099999999;;;24.9;unknown
73422;BME280;61637;47.760;-122.022;2023-04-30T01:14:03;101253.06099999999;;;24.9;unknown
73422;BME280;61637;47.760;-122.022;2023-04-30T01:16:02;101253.06099999999;;;24.9;unknown
73422;BME280;61637;47.760;-122.022;2023-04-30T01:18:02;101253.06099999999;;;24.9;unknown
73422;BME280;61637;47.760;-122.022;2023-04-30T01:20:01;101253.06099999999;;;24.9;unknown
73422;BME280;61637;47.760;-122.022;2023-04-30T01:22:02;101253.06099999999;;;24.7;unknown
73422;BME280;61637;47.760;-122.022;2023-04-30T01:24:09;101253.06099999999;;;24.7;unknown
73422;BME280;61637;47.760;-122.022;2023-04-30T01:26:06;101253.06099999999;;;24.7;unknown
73422;BME280;61637;47.760;-122.022;2023-04-30T01:28:01;101253.06099999999;;;24.6;unknown
73422;BME280;61637;47.760;-122.022;2023-04-30T01:30:00;101253.06099999999;;;24.6;unknown
73422;BME280;61637;47.760;-122.022;2023-04-30T01:32:01;101253.06099999999;;;24.6;unknown
73422;BME280;61637;47.760;-122.022;2023-04-30T01:34:00;101253.06099999999;;;24.6;unknown
73422;BME280;61637;47.760;-122.022;2023-04-30T01:38:02;101253.06099999999;;;24.4;unknown
73422;BME280;61637;47.760;-122.022;2023-04-30T01:40:05;101253.06099999999;;;24.4;unknown
73422;BME280;61637;47.760;-122.022;2023-04-30T01:42:04;101253.06099999999;;;24.4;unknown
73422;BME280;61637;47.760;-122.022;2023-04-30T01:44:07;101253.06099999999;;;24.5;unknown
73422;BME280;61637;47.760;-122.022;2023-04-30T01:46:03;101253.06099999999;;;24.5;unknown
73422;BME280;61637;47.760;-122.022;2023-04-30T01:48:03;101253.06099999999;;;24.6;unknown
73422;BME280;61637;47.760;-122.022;2023-04-30T01:50:07;101253.06099999999;;;24.4;unknown
73422;BME280;61637;47.760;-122.022;2023-04-30T01:52:02;101253.06099999999;;;24.3;unknown
73422;BME280;61637;47.760;-122.022;2023-04-30T01:54:03;101253.06099999999;;;24.3;unknown
73422;BME280;61637;47.760;-122.022;2023-04-30T01:56:01;101253.06099999999;;;24.2;unknown
73422;BME280;61637;47.760;-122.022;2023-04-30T01:58:02;101253.06099999999;;;24.2;unknown
73422;BME280;61637;47.760;-122.022;2023-04-30T02:00:01;101253.06099999999;;;24.1;unknown
73422;BME280;61637;47.760;-122.022;2023-04-30T02:02:00;101253.06099999999;;;23.9;unknown
73422;BME280;61637;47.760;-122.022;2023-04-30T02:04:01;101253.06099999999;;;23.8;unknown
73422;BME280;61637;47.760;-122.022;2023-04-30T02:06:00;101253.06099999999;;;23.7;unknown
73422;BME280;61637;47.760;-122.022;2023-04-30T02:08:01;101253.06099999999;;;23.7;unknown
73422;BME280;61637;47.760;-122.022;2023-04-30T02:10:00;101253.06099999999;;;23.6;unknown
73422;BME280;61637;47.760;-122.022;2023-04-30T02:12:01;101253.06099999999;;;23.6;unknown
73422;BME280;61637;47.760;-122.022;2023-04-30T02:14:00;101253.06099999999;;;23.5;unknown
73422;BME280;61637;47.760;-122.022;2023-04-30T02:16:00;101253.06099999999;;;23.4;unknown
73422;BME280;61637;47.760;-122.022;2023-04-30T02:18:00;101253.06099999999;;;23.4;unknown
73422;BME280;61637;47.760;-122.022;2023-04-30T02:20:01;101253.06099999999;;;23.3;unknown
73422;BME280;61637;47.760;-122.022;2023-04-30T02:22:00;101253.06099999999;;;23.3;unknown
73422;BME280;61637;47.760;-122.022;2023-04-30T02:24:01;101253.06099999999;;;23.2;unknown
73422;BME280;61637;47.760;-122.022;2023-04-30T02:26:00;101253.06099999999;;;23.2;unknown
73422;BME280;61637;47.760;-122.022;2023-04-30T02:28:00;101253.06099999999;;;23.2;unknown
73422;BME280;61637;47.760;-122.022;2023-04-30T02:30:00;101253.06099999999;;;23.1;unknown
73422;BME280;61637;47.760;-122.022;2023-04-30T02:32:01;101253.06099999999;;;23.1;unknown
73422;BME280;61637;47.760;-122.022;2023-04-30T02:34:00;101253.06099999999;;;22.9;unknown
73422;BME280;61637;47.760;-122.022;2023-04-30T02:36:01;101253.06099999999;;;22.9;unknown
73422;BME280;61637;47.760;-122.022;2023-04-30T02:38:00;101253.06099999999;;;22.8;unknown
73422;BME280;61637;47.760;-122.022;2023-04-30T02:40:00;101253.06099999999;;;22.7;unknown
73422;BME280;61637;47.760;-122.022;2023-04-30T02:42:00;101253.06099999999;;;22.6;unknown
73422;BME280;61637;47.760;-122.022;2023-04-30T02:44:01;101253.06099999999;;;22.6;unknown
73422;BME280;61637;47.760;-122.022;2023-04-30T02:46:00;101253.06099999999;;;22.5;unknown
73422;BME280;61637;47.760;-122.022;2023-04-30T02:48:01;101253.06099999999;;;22.4;unknown
73422;BME280;61637;47.760;-122.022;2023-04-30T02:50:00;101253.06099999999;;;22.3;unknown
73422;BME280;61637;47.760;-122.022;2023-04-30T02:52:00;101253.06099999999;;;22.3;unknown
73422;BME280;61637;47.760;-122.022;2023-04-30T02:54:00;101253.06099999999;;;22.2;unknown
73422;BME280;61637;47.760;-122.022;2023-04-30T02:56:01;101253.06099999999;;;22.1;unknown
73422;BME280;61637;47.760;-122.022;2023-04-30T02:58:00;101253.06099999999;;;22.1;unknown
73422;BME280;61637;47.760;-122.022;2023-04-30T03:00:01;101253.06099999999;;;22.0;unknown
73422;BME280;61637;47.760;-122.022;2023-04-30T03:02:00;101253.06099999999;;;21.9;unknown
73422;BME280;61637;47.760;-122.022;2023-04-30T03:04:00;101253.06099999999;;;21.8;unknown
73422;BME280;61637;47.760;-122.022;2023-04-30T03:06:00;101253.06099999999;;;21.8;unknown
73422;BME280;61637;47.760;-122.022;2023-04-30T03:08:00;101253.06099999999;;;21.7;unknown
73422;BME280;61637;47.760;-122.022;2023-04-30T03:10:00;101253.06099999999;;;21.7;unknown
73422;BME280;61637;47.760;-122.022;2023-04-30T03:12:01;101253.06099999999;;;21.6;unknown
73422;BME280;61637;47.760;-122.022;2023-04-30T03:14:00;101253.06099999999;;;21.6;unknown
73422;BME280;61637;47.760;-122.022;2023-04-30T03:16:01;101253.06099999999;;;21.6;unknown
73422;BME280;61637;47.760;-122.022;2023-04-30T03:18:00;101253.06099999999;;;21.4;unknown
73422;BME280;61637;47.760;-122.022;2023-04-30T03:20:01;101253.06099999999;;;21.3;unknown
73422;BME280;61637;47.760;-122.022;2023-04-30T03:22:00;101253.06099999999;;;21.1;unknown
73422;BME280;61637;47.760;-122.022;2023-04-30T03:24:01;101253.06099999999;;;20.9;unknown
73422;BME280;61637;47.760;-122.022;2023-04-30T03:26:00;101253.06099999999;;;20.8;unknown
73422;BME280;61637;47.760;-122.022;2023-04-30T03:28:00;101253.06099999999;;;20.6;unknown
73422;BME280;61637;47.760;-122.022;2023-04-30T03:30:00;101253.06099999999;;;20.4;unknown
73422;BME280;61637;47.760;-122.022;2023-04-30T03:32:00;101253.06099999999;;;20.3;unknown
73422;BME280;61637;47.760;-122.022;2023-04-30T03:34:00;101253.06099999999;;;20.2;unknown
73422;BME280;61637;47.760;-122.022;2023-04-30T03:36:01;101253.06099999999;;;20.1;unknown
73422;BME280;61637;47.760;-122.022;2023-04-30T03:38:00;101253.06099999999;;;20.1;unknown
73422;BME280;61637;47.760;-122.022;2023-04-30T03:40:00;101253.06099999999;;;20.0;unknown
73422;BME280;61637;47.760;-122.022;2023-04-30T03:42:00;101253.06099999999;;;19.9;unknown
73422;BME280;61637;47.760;-122.022;2023-04-30T03:44:01;101253.06099999999;;;19.8;unknown
73422;BME280;61637;47.760;-122.022;2023-04-30T03:46:00;101253.06099999999;;;19.8;unknown
73422;BME280;61637;47.760;-122.022;2023-04-30T03:48:01;101253.06099999999;;;19.7;unknown
73422;BME280;61637;47.760;-122.022;2023-04-30T03:50:01;101253.06099999999;;;19.6;unknown
73422;BME280;61637;47.760;-122.022;2023-04-30T03:52:00;101253.06099999999;;;19.5;unknown
73422;BME280;61637;47.760;-122.022;2023-04-30T03:54:00;101253.06099999999;;;19.4;unknown
73422;BME280;61637;47.760;-122.022;2023-04-30T03:56:01;101253.06099999999;;;19.3;unknown
73422;BME280;61637;47.760;-122.022;2023-04-30T03:58:00;101253.06099999999;;;19.2;unknown
73422;BME280;61637;47.760;-122.022;2023-04-30T04:00:01;101253.06099999999;;;19.2;unknown
73422;BME280;61637;47.760;-122.022;2023-04-30T04:02:00;101253.06099999999;;;19.1;unknown
73422;BME280;61637;47.760;-122.022;2023-04-30T04:04:00;101253.06099999999;;;19.1;unknown
73422;BME280;61637;47.760;-122.022;2023-04-30T04:06:00;101253.06099999999;;;18.9;unknown
73422;BME280;61637;47.760;-122.022;2023-04-30T04:08:00;101253.06099999999;;;18.9;unknown
73422;BME280;61637;47.760;-122.022;2023-04-30T04:10:00;101253.06099999999;;;18.8;unknown
73422;BME280;61637;47.760;-122.022;2023-04-30T04:12:01;101253.06099999999;;;18.7;unknown
73422;BME280;61637;47.760;-122.022;2023-04-30T04:14:00;101253.06099999999;;;18.5;unknown
73422;BME280;61637;47.760;-122.022;2023-04-30T04:16:00;101253.06099999999;;;18.3;unknown
73422;BME280;61637;47.760;-122.022;2023-04-30T04:18:00;101253.06099999999;;;18.2;unknown
73422;BME280;61637;47.760;-122.022;2023-04-30T04:20:01;101253.06099999999;;;18.1;unknown
73422;BME280;61637;47.760;-122.022;2023-04-30T04:22:00;101253.06099999999;;;17.9;unknown
73422;BME280;61637;47.760;-122.022;2023-04-30T04:24:01;101253.06099999999;;;17.8;unknown
73422;BME280;61637;47.760;-122.022;2023-04-30T04:26:00;101253.06099999999;;;17.7;unknown
73422;BME280;61637;47.760;-122.022;2023-04-30T04:28:00;101253.06099999999;;;17.6;unknown
73422;BME280;61637;47.760;-122.022;2023-04-30T04:30:01;101253.06099999999;;;17.4;unknown
73422;BME280;61637;47.760;-122.022;2023-04-30T04:32:01;101253.06099999999;;;17.3;unknown
73422;BME280;61637;47.760;-122.022;2023-04-30T04:34:02;101253.06099999999;;;17.2;unknown
73422;BME280;61637;47.760;-122.022;2023-04-30T04:36:01;101253.06099999999;;;17.1;unknown
73422;BME280;61637;47.760;-122.022;2023-04-30T04:38:00;101253.06099999999;;;16.9;unknown
73422;BME280;61637;47.760;-122.022;2023-04-30T04:40:00;101253.06099999999;;;16.8;unknown
73422;BME280;61637;47.760;-122.022;2023-04-30T04:42:00;101253.06099999999;;;16.7;unknown
73422;BME280;61637;47.760;-122.022;2023-04-30T04:44:01;101253.06099999999;;;16.6;unknown
73422;BME280;61637;47.760;-122.022;2023-04-30T04:46:00;101253.06099999999;;;16.4;unknown
73422;BME280;61637;47.760;-122.022;2023-04-30T04:48:01;101253.06099999999;;;16.3;unknown
73422;BME280;61637;47.760;-122.022;2023-04-30T04:50:00;101253.06099999999;;;16.3;unknown
73422;BME280;61637;47.760;-122.022;2023-04-30T04:52:00;101253.06099999999;;;16.2;unknown
73422;BME280;61637;47.760;-122.022;2023-04-30T04:54:00;101253.06099999999;;;16.1;unknown
73422;BME280;61637;47.760;-122.022;2023-04-30T04:56:01;101253.06099999999;;;16.1;unknown
73422;BME280;61637;47.760;-122.022;2023-04-30T04:58:00;101253.06099999999;;;16.0;unknown
73422;BME280;61637;47.760;-122.022;2023-04-30T05:00:01;101253.06099999999;;;15.9;unknown
73422;BME280;61637;47.760;-122.022;2023-04-30T05:02:00;101253.06099999999;;;15.8;unknown
73422;BME280;61637;47.760;-122.022;2023-04-30T05:04:00;101253.06099999999;;;15.8;unknown
73422;BME280;61637;47.760;-122.022;2023-04-30T05:06:00;101253.06099999999;;;15.7;unknown
73422;BME280;61637;47.760;-122.022;2023-04-30T05:08:01;101253.06099999999;;;15.6;unknown
73422;BME280;61637;47.760;-122.022;2023-04-30T05:10:00;101253.06099999999;;;15.6;unknown
73422;BME280;61637;47.760;-122.022;2023-04-30T05:12:01;101253.06099999999;;;15.5;unknown
73422;BME280;61637;47.760;-122.022;2023-04-30T05:14:00;101253.06099999999;;;15.5;unknown
73422;BME280;61637;47.760;-122.022;2023-04-30T05:16:00;101253.06099999999;;;15.4;unknown
73422;BME280;61637;47.760;-122.022;2023-04-30T05:18:00;101253.06099999999;;;15.4;unknown
73422;BME280;61637;47.760;-122.022;2023-04-30T05:20:01;101253.06099999999;;;15.4;unknown
73422;BME280;61637;47.760;-122.022;2023-04-30T05:22:00;101253.06099999999;;;15.3;unknown
73422;BME280;61637;47.760;-122.022;2023-04-30T05:24:01;101253.06099999999;;;15.3;unknown
73422;BME280;61637;47.760;-122.022;2023-04-30T05:26:00;101253.06099999999;;;15.3;unknown
73422;BME280;61637;47.760;-122.022;2023-04-30T05:28:00;101253.06099999999;;;15.2;unknown
73422;BME280;61637;47.760;-122.022;2023-04-30T05:30:01;101253.06099999999;;;15.2;unknown
73422;BME280;61637;47.760;-122.022;2023-04-30T05:32:01;101253.06099999999;;;15.1;unknown
73422;BME280;61637;47.760;-122.022;2023-04-30T05:34:00;101253.06099999999;;;15.1;unknown
73422;BME280;61637;47.760;-122.022;2023-04-30T05:36:01;101253.06099999999;;;15.1;unknown
73422;BME280;61637;47.760;-122.022;2023-04-30T05:38:01;101253.06099999999;;;15.0;unknown
73422;BME280;61637;47.760;-122.022;2023-04-30T05:40:00;101253.06099999999;;;14.9;unknown
73422;BME280;61637;47.760;-122.022;2023-04-30T05:42:00;101253.06099999999;;;14.8;unknown
73422;BME280;61637;47.760;-122.022;2023-04-30T05:44:01;101253.06099999999;;;14.8;unknown
73422;BME280;61637;47.760;-122.022;2023-04-30T05:46:00;101253.06099999999;;;14.7;unknown
73422;BME280;61637;47.760;-122.022;2023-04-30T05:48:01;101253.06099999999;;;14.7;unknown
73422;BME280;61637;47.760;-122.022;2023-04-30T05:50:00;101253.06099999999;;;14.7;unknown
73422;BME280;61637;47.760;-122.022;2023-04-30T05:52:00;101253.06099999999;;;14.6;unknown
73422;BME280;61637;47.760;-122.022;2023-04-30T05:54:00;101253.06099999999;;;14.6;unknown
73422;BME280;61637;47.760;-122.022;2023-04-30T05:56:00;101253.06099999999;;;14.6;unknown
73422;BME280;61637;47.760;-122.022;2023-04-30T05:58:00;101253.06099999999;;;14.5;unknown
73422;BME280;61637;47.760;-122.022;2023-04-30T06:00:01;101253.06099999999;;;14.5;unknown
73422;BME280;61637;47.760;-122.022;2023-04-30T06:02:00;101253.06099999999;;;14.5;unknown
73422;BME280;61637;47.760;-122.022;2023-04-30T06:04:00;101253.06099999999;;;14.5;unknown
73422;BME280;61637;47.760;-122.022;2023-04-30T06:06:00;101253.06099999999;;;14.5;unknown
73422;BME280;61637;47.760;-122.022;2023-04-30T06:08:00;101253.06099999999;;;14.5;unknown
73422;BME280;61637;47.760;-122.022;2023-04-30T06:10:01;101253.06099999999;;;14.4;unknown
73422;BME280;61637;47.760;-122.022;2023-04-30T06:12:01;101253.06099999999;;;14.4;unknown
73422;BME280;61637;47.760;-122.022;2023-04-30T06:14:00;101253.06099999999;;;14.3;unknown
73422;BME280;61637;47.760;-122.022;2023-04-30T06:16:00;101253.06099999999;;;14.3;unknown
73422;BME280;61637;47.760;-122.022;2023-04-30T06:18:00;101253.06099999999;;;14.2;unknown
73422;BME280;61637;47.760;-122.022;2023-04-30T06:20:00;101253.06099999999;;;14.2;unknown
73422;BME280;61637;47.760;-122.022;2023-04-30T06:22:00;101253.06099999999;;;14.1;unknown
73422;BME280;61637;47.760;-122.022;2023-04-30T06:24:01;101253.06099999999;;;14.1;unknown
73422;BME280;61637;47.760;-122.022;2023-04-30T06:26:00;101253.06099999999;;;14.0;unknown
73422;BME280;61637;47.760;-122.022;2023-04-30T06:28:00;101253.06099999999;;;14.0;unknown
73422;BME280;61637;47.760;-122.022;2023-04-30T06:30:00;101253.06099999999;;;13.9;unknown
73422;BME280;61637;47.760;-122.022;2023-04-30T06:32:01;101253.06099999999;;;13.9;unknown
73422;BME280;61637;47.760;-122.022;2023-04-30T06:34:00;101253.06099999999;;;13.8;unknown
73422;BME280;61637;47.760;-122.022;2023-04-30T06:36:01;101253.06099999999;;;13.8;unknown
73422;BME280;61637;47.760;-122.022;2023-04-30T06:38:00;101253.06099999999;;;13.7;unknown
73422;BME280;61637;47.760;-122.022;2023-04-30T06:40:00;101253.06099999999;;;13.7;unknown
73422;BME280;61637;47.760;-122.022;2023-04-30T06:42:00;101253.06099999999;;;13.7;unknown
73422;BME280;61637;47.760;-122.022;2023-04-30T06:44:00;101253.06099999999;;;13.7;unknown
73422;BME280;61637;47.760;-122.022;2023-04-30T06:46:00;101253.06099999999;;;13.7;unknown
73422;BME280;61637;47.760;-122.022;2023-04-30T06:48:01;101253.06099999999;;;13.6;unknown
73422;BME280;61637;47.760;-122.022;2023-04-30T06:50:00;101253.06099999999;;;13.6;unknown
73422;BME280;61637;47.760;-122.022;2023-04-30T06:52:00;101253.06099999999;;;13.6;unknown
73422;BME280;61637;47.760;-122.022;2023-04-30T06:54:00;101253.06099999999;;;13.6;unknown
73422;BME280;61637;47.760;-122.022;2023-04-30T06:56:01;101253.06099999999;;;13.5;unknown
73422;BME280;61637;47.760;-122.022;2023-04-30T06:58:00;101253.06099999999;;;13.5;unknown
73422;BME280;61637;47.760;-122.022;2023-04-30T07:00:01;101253.06099999999;;;13.4;unknown
73422;BME280;61637;47.760;-122.022;2023-04-30T07:02:00;101253.06099999999;;;13.3;unknown
73422;BME280;61637;47.760;-122.022;2023-04-30T07:04:00;101253.06099999999;;;13.3;unknown
73422;BME280;61637;47.760;-122.022;2023-04-30T07:06:00;101253.06099999999;;;13.3;unknown
73422;BME280;61637;47.760;-122.022;2023-04-30T07:08:01;101253.06099999999;;;13.2;unknown
73422;BME280;61637;47.760;-122.022;2023-04-30T07:10:00;101253.06099999999;;;13.2;unknown
73422;BME280;61637;47.760;-122.022;2023-04-30T07:12:01;101253.06099999999;;;13.1;unknown
73422;BME280;61637;47.760;-122.022;2023-04-30T07:14:00;101253.06099999999;;;13.1;unknown
73422;BME280;61637;47.760;-122.022;2023-04-30T07:16:00;101253.06099999999;;;13.0;unknown
73422;BME280;61637;47.760;-122.022;2023-04-30T07:18:00;101253.06099999999;;;12.9;unknown
73422;BME280;61637;47.760;-122.022;2023-04-30T07:20:00;101253.06099999999;;;12.8;unknown
73422;BME280;61637;47.760;-122.022;2023-04-30T07:22:01;101253.06099999999;;;12.8;unknown
73422;BME280;61637;47.760;-122.022;2023-04-30T07:24:01;101253.06099999999;;;12.7;unknown
73422;BME280;61637;47.760;-122.022;2023-04-30T07:26:00;101253.06099999999;;;12.7;unknown
73422;BME280;61637;47.760;-122.022;2023-04-30T07:28:00;101253.06099999999;;;12.7;unknown
73422;BME280;61637;47.760;-122.022;2023-04-30T07:30:00;101253.06099999999;;;12.6;unknown
73422;BME280;61637;47.760;-122.022;2023-04-30T07:32:00;101253.06099999999;;;12.6;unknown
73422;BME280;61637;47.760;-122.022;2023-04-30T07:34:00;101253.06099999999;;;12.6;unknown
73422;BME280;61637;47.760;-122.022;2023-04-30T07:36:01;101253.06099999999;;;12.5;unknown
73422;BME280;61637;47.760;-122.022;2023-04-30T07:38:00;101253.06099999999;;;12.5;unknown
73422;BME280;61637;47.760;-122.022;2023-04-30T07:40:00;101253.06099999999;;;12.5;unknown
73422;BME280;61637;47.760;-122.022;2023-04-30T07:42:00;101253.06099999999;;;12.5;unknown
73422;BME280;61637;47.760;-122.022;2023-04-30T07:44:00;101253.06099999999;;;12.4;unknown
73422;BME280;61637;47.760;-122.022;2023-04-30T07:46:00;101253.06099999999;;;12.4;unknown
73422;BME280;61637;47.760;-122.022;2023-04-30T07:48:01;101253.06099999999;;;12.5;unknown
73422;BME280;61637;47.760;-122.022;2023-04-30T07:50:00;101253.06099999999;;;12.5;unknown
73422;BME280;61637;47.760;-122.022;2023-04-30T07:52:00;101253.06099999999;;;12.5;unknown
73422;BME280;61637;47.760;-122.022;2023-04-30T07:54:00;101253.06099999999;;;12.4;unknown
73422;BME280;61637;47.760;-122.022;2023-04-30T07:56:00;101253.06099999999;;;12.5;unknown
73422;BME280;61637;47.760;-122.022;2023-04-30T07:58:00;101253.06099999999;;;12.5;unknown
73422;BME280;61637;47.760;-122.022;2023-04-30T08:00:01;101253.06099999999;;;12.5;unknown
73422;BME280;61637;47.760;-122.022;2023-04-30T08:02:01;101253.06099999999;;;12.5;unknown
73422;BME280;61637;47.760;-122.022;2023-04-30T08:04:00;101253.06099999999;;;12.5;unknown
73422;BME280;61637;47.760;-122.022;2023-04-30T08:06:01;101253.06099999999;;;12.5;unknown
73422;BME280;61637;47.760;-122.022;2023-04-30T08:08:01;101253.06099999999;;;12.5;unknown
73422;BME280;61637;47.760;-122.022;2023-04-30T08:10:00;101253.06099999999;;;12.4;unknown
73422;BME280;61637;47.760;-122.022;2023-04-30T08:12:01;101253.06099999999;;;12.4;unknown
73422;BME280;61637;47.760;-122.022;2023-04-30T08:14:00;101253.06099999999;;;12.4;unknown
73422;BME280;61637;47.760;-122.022;2023-04-30T08:16:00;101253.06099999999;;;12.4;unknown
73422;BME280;61637;47.760;-122.022;2023-04-30T08:18:01;101253.06099999999;;;12.4;unknown
73422;BME280;61637;47.760;-122.022;2023-04-30T08:20:01;101253.06099999999;;;12.3;unknown
73422;BME280;61637;47.760;-122.022;2023-04-30T08:22:00;101253.06099999999;;;12.3;unknown
73422;BME280;61637;47.760;-122.022;2023-04-30T08:24:01;101253.06099999999;;;12.3;unknown
73422;BME280;61637;47.760;-122.022;2023-04-30T08:26:00;101253.06099999999;;;12.2;unknown
73422;BME280;61637;47.760;-122.022;2023-04-30T08:28:00;101253.06099999999;;;12.2;unknown
73422;BME280;61637;47.760;-122.022;2023-04-30T08:30:00;101253.06099999999;;;12.2;unknown
73422;BME280;61637;47.760;-122.022;2023-04-30T08:32:01;101253.06099999999;;;12.2;unknown
73422;BME280;61637;47.760;-122.022;2023-04-30T08:34:00;101253.06099999999;;;12.1;unknown
73422;BME280;61637;47.760;-122.022;2023-04-30T08:36:01;101253.06099999999;;;12.2;unknown
73422;BME280;61637;47.760;-122.022;2023-04-30T08:38:00;101253.06099999999;;;12.1;unknown
73422;BME280;61637;47.760;-122.022;2023-04-30T08:40:00;101253.06099999999;;;12.1;unknown
73422;BME280;61637;47.760;-122.022;2023-04-30T08:42:01;101253.06099999999;;;12.1;unknown
73422;BME280;61637;47.760;-122.022;2023-04-30T08:44:01;101253.06099999999;;;12.1;unknown
73422;BME280;61637;47.760;-122.022;2023-04-30T08:46:01;101253.06099999999;;;12.1;unknown
73422;BME280;61637;47.760;-122.022;2023-04-30T08:48:01;101253.06099999999;;;12.1;unknown
73422;BME280;61637;47.760;-122.022;2023-04-30T08:50:00;101253.06099999999;;;12.1;unknown
73422;BME280;61637;47.760;-122.022;2023-04-30T08:52:00;101253.06099999999;;;12.1;unknown
73422;BME280;61637;47.760;-122.022;2023-04-30T08:54:00;101253.06099999999;;;12.1;unknown
73422;BME280;61637;47.760;-122.022;2023-04-30T08:56:01;101253.06099999999;;;12.0;unknown